Meath Environmental Platform

Observations

Time Sensor AQI SAQ Temp °C Hum % Pres Pa CO μg/m³ H₂S μg/m³ NO μg/m³ NO₂ μg/m³ O₃ μg/m³ SO₂ μg/m³ CO₂e PPM VOC PPM PM1 μg/m³ PM2.5 μg/m³ PM4 μg/m³ PM10 μg/m³ TPS µm
Thursday 13 August 2026
04:33 Trim Market St 2 21.4 74 31,341 0 0 1.26 11.96 35.75 0 2.14 3.33 5.73
04:33 Trim Patrick St 2 20.8 78 38,460 0 6.64 1.42 24.51 23.39 4.15 7.14 10.29 11.32
04:32 Trim Market St 2 21.4 74 31,212 0 0 1.22 8.95 42.38 0 3.56 3.81 6.33
04:32 Trim Patrick St 2 20.8 78 38,460 0 1.74 1.46 5.83 32.31 5.15 6.29 10.99 12.08
04:31 Trim Market St 2 21.4 74 30,872 0 0 1.16 7.46 37.9 0 3.56 4.77 7.53
04:31 Trim Patrick St 2 20.8 78 38,460 0 1.58 1.39 10.88 26.42 4.21 5.43 8.87 9.76
04:30 Trim Market St 2 21.4 74 30,651 0 0 1.15 12.32 38.12 0 2.85 3.81 6.33
04:30 Trim Patrick St 2 20.9 78 38,460 0 4.66 1.46 13 32.36 4.89 5.43 8.89 9.78
04:28 Trim Market St 2 21.4 74 30,231 0 0 1.18 12.2 40.63 0 2.85 4.29 7.53
04:28 Trim Patrick St 2 20.8 78 38,460 0 4.16 1.38 10.85 28.73 4.97 7.14 10.3 11.33
04:27 Trim Market St 2 21.4 74 30,151 0 0 1.23 11.24 39.11 0 2.85 4.77 7.53
04:26 Trim Patrick St 2 20.8 78 38,460 0 2.98 1.46 14.23 23.6 4.25 5.43 8.87 9.75
04:25 Trim Patrick St 2 20.8 78 38,460 0 3.21 1.42 12.22 28.83 4.78 5.43 9.58 10.53
04:24 Trim Market St 2 21.4 74 30,049 0.01 0 1.36 11.71 39.24 0 2.14 4.29 6.93
04:24 Trim Patrick St 2 20.9 78 38,460 0 5.27 1.47 11.84 31.48 5.05 7.14 11.71 12.88
04:23 Trim Market St 2 21.4 74 30,034 0.02 0 1.33 14.52 41.17 0 4.28 4.77 8.73
04:23 Trim Patrick St 2 20.9 78 38,460 0 5.93 1.47 18.42 22.55 3.97 5.43 8.2 9.02
04:22 Trim Market St 2 21.4 74 30,021 0.03 0 1.24 11.71 39.38 0 3.56 5.73 8.73
04:22 Trim Patrick St 2 20.9 77 38,460 0 5.27 1.44 12.61 31.84 5.04 6.29 10.34 11.37
04:21 Trim Patrick St 2 20.9 78 38,460 0 7.82 1.53 13.9 30.68 5.26 6.29 10.32 11.35